sensor_id;sensor_type;location;lat;lon;timestamp;P1;durP1;ratioP1;P2;durP2;ratioP2
18647;SDS011;9453;50.294;18.644;2023-12-04T05:01:06;44.73;;;16.63;;
18647;SDS011;9453;50.294;18.644;2023-12-04T05:03:34;44.17;;;15.77;;
18647;SDS011;9453;50.294;18.644;2023-12-04T05:06:01;39.83;;;15.80;;
18647;SDS011;9453;50.294;18.644;2023-12-04T05:08:29;38.70;;;14.87;;
18647;SDS011;9453;50.294;18.644;2023-12-04T05:10:56;38.37;;;15.20;;
18647;SDS011;9453;50.294;18.644;2023-12-04T05:13:22;39.77;;;15.93;;
18647;SDS011;9453;50.294;18.644;2023-12-04T05:15:49;36.40;;;15.47;;
18647;SDS011;9453;50.294;18.644;2023-12-04T05:18:18;36.20;;;14.93;;
18647;SDS011;9453;50.294;18.644;2023-12-04T05:20:45;38.17;;;16.20;;
18647;SDS011;9453;50.294;18.644;2023-12-04T05:23:11;32.37;;;13.90;;
18647;SDS011;9453;50.294;18.644;2023-12-04T05:25:38;41.23;;;16.37;;
18647;SDS011;9453;50.294;18.644;2023-12-04T05:28:05;38.77;;;16.17;;
18647;SDS011;9453;50.294;18.644;2023-12-04T05:30:32;43.83;;;15.93;;
18647;SDS011;9453;50.294;18.644;2023-12-04T05:32:59;39.17;;;15.40;;
18647;SDS011;9453;50.294;18.644;2023-12-04T05:35:28;40.80;;;14.63;;
18647;SDS011;9453;50.294;18.644;2023-12-04T05:37:58;38.73;;;15.97;;
18647;SDS011;9453;50.294;18.644;2023-12-04T05:40:25;37.27;;;16.37;;
18647;SDS011;9453;50.294;18.644;2023-12-04T05:42:52;45.57;;;16.73;;
18647;SDS011;9453;50.294;18.644;2023-12-04T05:45:19;46.37;;;17.40;;
18647;SDS011;9453;50.294;18.644;2023-12-04T05:47:46;46.23;;;16.50;;
18647;SDS011;9453;50.294;18.644;2023-12-04T05:50:13;46.40;;;17.10;;
18647;SDS011;9453;50.294;18.644;2023-12-04T05:52:41;39.73;;;15.47;;
18647;SDS011;9453;50.294;18.644;2023-12-04T05:55:08;41.17;;;16.70;;
18647;SDS011;9453;50.294;18.644;2023-12-04T05:57:38;41.77;;;17.53;;
18647;SDS011;9453;50.294;18.644;2023-12-04T06:00:06;39.63;;;16.47;;
18647;SDS011;9453;50.294;18.644;2023-12-04T06:02:37;50.80;;;18.20;;
18647;SDS011;9453;50.294;18.644;2023-12-04T06:05:04;54.67;;;20.07;;
18647;SDS011;9453;50.294;18.644;2023-12-04T06:07:32;51.63;;;19.50;;
18647;SDS011;9453;50.294;18.644;2023-12-04T06:10:01;62.20;;;19.90;;
18647;SDS011;9453;50.294;18.644;2023-12-04T06:12:29;51.57;;;19.07;;
18647;SDS011;9453;50.294;18.644;2023-12-04T06:14:56;59.70;;;21.90;;
18647;SDS011;9453;50.294;18.644;2023-12-04T06:17:24;58.67;;;20.27;;
18647;SDS011;9453;50.294;18.644;2023-12-04T06:19:51;52.97;;;20.70;;
18647;SDS011;9453;50.294;18.644;2023-12-04T06:22:18;50.30;;;17.97;;
18647;SDS011;9453;50.294;18.644;2023-12-04T06:24:47;54.50;;;19.13;;
18647;SDS011;9453;50.294;18.644;2023-12-04T06:27:16;68.70;;;22.53;;
18647;SDS011;9453;50.294;18.644;2023-12-04T06:29:45;61.53;;;22.97;;
18647;SDS011;9453;50.294;18.644;2023-12-04T06:32:14;57.53;;;21.83;;
18647;SDS011;9453;50.294;18.644;2023-12-04T06:34:41;54.40;;;20.77;;
18647;SDS011;9453;50.294;18.644;2023-12-04T06:37:09;54.77;;;19.77;;
18647;SDS011;9453;50.294;18.644;2023-12-04T06:39:38;45.93;;;19.60;;
18647;SDS011;9453;50.294;18.644;2023-12-04T06:42:06;42.00;;;16.57;;
18647;SDS011;9453;50.294;18.644;2023-12-04T06:44:36;57.23;;;19.73;;
18647;SDS011;9453;50.294;18.644;2023-12-04T06:47:04;47.10;;;19.10;;
18647;SDS011;9453;50.294;18.644;2023-12-04T06:49:33;55.83;;;20.47;;
18647;SDS011;9453;50.294;18.644;2023-12-04T06:52:01;45.40;;;18.53;;
18647;SDS011;9453;50.294;18.644;2023-12-04T06:54:29;49.73;;;19.47;;
18647;SDS011;9453;50.294;18.644;2023-12-04T06:56:56;49.10;;;18.40;;
18647;SDS011;9453;50.294;18.644;2023-12-04T06:59:23;49.03;;;18.37;;
18647;SDS011;9453;50.294;18.644;2023-12-04T07:01:55;53.63;;;18.93;;
18647;SDS011;9453;50.294;18.644;2023-12-04T07:04:26;51.07;;;18.87;;
18647;SDS011;9453;50.294;18.644;2023-12-04T07:06:54;47.43;;;18.77;;
18647;SDS011;9453;50.294;18.644;2023-12-04T07:09:23;49.90;;;19.20;;
18647;SDS011;9453;50.294;18.644;2023-12-04T07:11:50;63.40;;;23.10;;
18647;SDS011;9453;50.294;18.644;2023-12-04T07:14:17;56.03;;;22.53;;
18647;SDS011;9453;50.294;18.644;2023-12-04T07:16:44;55.47;;;20.30;;
18647;SDS011;9453;50.294;18.644;2023-12-04T07:19:12;74.53;;;26.10;;
18647;SDS011;9453;50.294;18.644;2023-12-04T07:21:39;79.13;;;28.90;;
18647;SDS011;9453;50.294;18.644;2023-12-04T07:24:07;90.27;;;31.57;;
18647;SDS011;9453;50.294;18.644;2023-12-04T07:26:34;80.87;;;30.10;;
18647;SDS011;9453;50.294;18.644;2023-12-04T07:29:02;92.30;;;33.17;;
18647;SDS011;9453;50.294;18.644;2023-12-04T07:31:29;80.63;;;30.33;;
18647;SDS011;9453;50.294;18.644;2023-12-04T07:33:57;76.30;;;29.37;;
18647;SDS011;9453;50.294;18.644;2023-12-04T07:36:28;90.80;;;30.90;;
18647;SDS011;9453;50.294;18.644;2023-12-04T07:38:55;81.37;;;28.17;;
18647;SDS011;9453;50.294;18.644;2023-12-04T07:41:23;75.77;;;28.67;;
18647;SDS011;9453;50.294;18.644;2023-12-04T07:43:51;81.33;;;27.83;;
18647;SDS011;9453;50.294;18.644;2023-12-04T07:46:17;80.77;;;31.03;;
18647;SDS011;9453;50.294;18.644;2023-12-04T07:48:45;99.37;;;35.07;;
18647;SDS011;9453;50.294;18.644;2023-12-04T07:51:13;100.60;;;36.93;;
18647;SDS011;9453;50.294;18.644;2023-12-04T07:53:43;102.20;;;37.13;;
18647;SDS011;9453;50.294;18.644;2023-12-04T07:56:12;100.10;;;36.97;;
18647;SDS011;9453;50.294;18.644;2023-12-04T07:58:40;115.90;;;39.63;;
18647;SDS011;9453;50.294;18.644;2023-12-04T08:01:07;108.07;;;40.60;;
18647;SDS011;9453;50.294;18.644;2023-12-04T08:03:35;97.13;;;37.63;;
18647;SDS011;9453;50.294;18.644;2023-12-04T08:06:03;92.17;;;36.77;;
18647;SDS011;9453;50.294;18.644;2023-12-04T08:08:30;106.03;;;40.83;;
18647;SDS011;9453;50.294;18.644;2023-12-04T08:11:00;110.93;;;39.03;;
18647;SDS011;9453;50.294;18.644;2023-12-04T08:13:27;92.10;;;36.03;;
18647;SDS011;9453;50.294;18.644;2023-12-04T08:15:54;91.47;;;36.33;;
18647;SDS011;9453;50.294;18.644;2023-12-04T08:18:22;89.67;;;35.27;;
18647;SDS011;9453;50.294;18.644;2023-12-04T08:20:49;85.27;;;33.90;;
18647;SDS011;9453;50.294;18.644;2023-12-04T08:23:17;75.23;;;30.40;;
18647;SDS011;9453;50.294;18.644;2023-12-04T08:25:45;77.37;;;29.70;;
18647;SDS011;9453;50.294;18.644;2023-12-04T08:28:14;65.63;;;26.03;;
18647;SDS011;9453;50.294;18.644;2023-12-04T08:30:41;61.50;;;25.40;;
18647;SDS011;9453;50.294;18.644;2023-12-04T08:33:08;57.30;;;22.67;;
18647;SDS011;9453;50.294;18.644;2023-12-04T08:35:35;50.97;;;20.87;;
18647;SDS011;9453;50.294;18.644;2023-12-04T08:38:03;52.90;;;20.87;;
18647;SDS011;9453;50.294;18.644;2023-12-04T08:40:31;46.87;;;20.00;;
18647;SDS011;9453;50.294;18.644;2023-12-04T08:42:59;55.17;;;21.07;;
18647;SDS011;9453;50.294;18.644;2023-12-04T08:45:28;50.80;;;21.77;;
18647;SDS011;9453;50.294;18.644;2023-12-04T08:47:55;49.93;;;20.97;;
18647;SDS011;9453;50.294;18.644;2023-12-04T08:50:22;45.47;;;20.13;;
18647;SDS011;9453;50.294;18.644;2023-12-04T08:52:50;44.67;;;18.23;;
18647;SDS011;9453;50.294;18.644;2023-12-04T08:55:17;46.23;;;18.87;;
18647;SDS011;9453;50.294;18.644;2023-12-04T08:57:44;51.40;;;19.43;;
18647;SDS011;9453;50.294;18.644;2023-12-04T09:00:13;52.10;;;21.00;;
18647;SDS011;9453;50.294;18.644;2023-12-04T09:02:42;54.37;;;21.63;;
18647;SDS011;9453;50.294;18.644;2023-12-04T09:05:09;55.30;;;20.60;;
18647;SDS011;9453;50.294;18.644;2023-12-04T09:07:36;48.23;;;20.90;;
18647;SDS011;9453;50.294;18.644;2023-12-04T09:10:03;54.67;;;20.43;;
18647;SDS011;9453;50.294;18.644;2023-12-04T09:12:31;60.23;;;22.97;;
18647;SDS011;9453;50.294;18.644;2023-12-04T09:15:00;61.33;;;22.57;;
18647;SDS011;9453;50.294;18.644;2023-12-04T09:17:27;54.57;;;21.93;;
18647;SDS011;9453;50.294;18.644;2023-12-04T09:19:56;56.77;;;21.70;;
18647;SDS011;9453;50.294;18.644;2023-12-04T09:22:23;49.27;;;19.93;;
18647;SDS011;9453;50.294;18.644;2023-12-04T09:24:49;57.63;;;24.13;;
18647;SDS011;9453;50.294;18.644;2023-12-04T09:27:16;46.53;;;20.00;;
18647;SDS011;9453;50.294;18.644;2023-12-04T09:29:43;42.20;;;17.33;;
18647;SDS011;9453;50.294;18.644;2023-12-04T09:32:10;44.70;;;19.17;;
18647;SDS011;9453;50.294;18.644;2023-12-04T09:34:38;48.57;;;19.30;;
18647;SDS011;9453;50.294;18.644;2023-12-04T09:37:07;61.67;;;21.10;;
18647;SDS011;9453;50.294;18.644;2023-12-04T09:39:34;47.07;;;18.83;;
18647;SDS011;9453;50.294;18.644;2023-12-04T09:42:02;52.40;;;18.53;;
18647;SDS011;9453;50.294;18.644;2023-12-04T09:44:30;39.97;;;16.80;;
18647;SDS011;9453;50.294;18.644;2023-12-04T09:46:58;39.70;;;16.40;;
18647;SDS011;9453;50.294;18.644;2023-12-04T09:49:28;37.83;;;16.53;;
18647;SDS011;9453;50.294;18.644;2023-12-04T09:51:57;46.47;;;16.77;;
18647;SDS011;9453;50.294;18.644;2023-12-04T09:54:25;35.03;;;15.27;;
18647;SDS011;9453;50.294;18.644;2023-12-04T09:56:52;48.53;;;17.40;;
18647;SDS011;9453;50.294;18.644;2023-12-04T09:59:20;47.63;;;17.50;;
18647;SDS011;9453;50.294;18.644;2023-12-04T10:01:53;33.73;;;15.73;;
18647;SDS011;9453;50.294;18.644;2023-12-04T10:04:22;39.10;;;15.43;;
18647;SDS011;9453;50.294;18.644;2023-12-04T10:06:50;36.00;;;14.90;;
18647;SDS011;9453;50.294;18.644;2023-12-04T10:09:17;33.50;;;13.90;;
18647;SDS011;9453;50.294;18.644;2023-12-04T10:11:49;35.07;;;13.43;;
18647;SDS011;9453;50.294;18.644;2023-12-04T10:14:18;33.90;;;14.07;;
18647;SDS011;9453;50.294;18.644;2023-12-04T10:16:46;28.50;;;12.87;;
18647;SDS011;9453;50.294;18.644;2023-12-04T10:19:17;31.57;;;13.97;;
18647;SDS011;9453;50.294;18.644;2023-12-04T10:21:48;30.53;;;13.17;;
18647;SDS011;9453;50.294;18.644;2023-12-04T10:24:34;28.77;;;12.23;;
18647;SDS011;9453;50.294;18.644;2023-12-04T10:27:05;28.57;;;13.13;;
18647;SDS011;9453;50.294;18.644;2023-12-04T10:29:40;28.90;;;11.90;;
18647;SDS011;9453;50.294;18.644;2023-12-04T10:32:16;30.63;;;12.57;;
18647;SDS011;9453;50.294;18.644;2023-12-04T10:34:46;30.50;;;11.73;;
18647;SDS011;9453;50.294;18.644;2023-12-04T10:37:13;32.73;;;12.33;;
18647;SDS011;9453;50.294;18.644;2023-12-04T10:39:45;24.33;;;11.13;;
18647;SDS011;9453;50.294;18.644;2023-12-04T10:42:25;29.03;;;12.63;;
18647;SDS011;9453;50.294;18.644;2023-12-04T10:44:54;26.17;;;12.07;;
18647;SDS011;9453;50.294;18.644;2023-12-04T10:47:22;36.73;;;13.83;;
18647;SDS011;9453;50.294;18.644;2023-12-04T10:49:50;28.77;;;11.77;;
18647;SDS011;9453;50.294;18.644;2023-12-04T10:52:18;27.23;;;11.43;;
18647;SDS011;9453;50.294;18.644;2023-12-04T10:54:45;27.97;;;11.10;;
18647;SDS011;9453;50.294;18.644;2023-12-04T10:57:12;28.63;;;12.40;;
18647;SDS011;9453;50.294;18.644;2023-12-04T10:59:49;40.73;;;13.73;;
18647;SDS011;9453;50.294;18.644;2023-12-04T11:02:20;40.37;;;14.27;;
18647;SDS011;9453;50.294;18.644;2023-12-04T11:04:54;37.67;;;13.73;;
18647;SDS011;9453;50.294;18.644;2023-12-04T11:07:26;33.43;;;13.47;;
18647;SDS011;9453;50.294;18.644;2023-12-04T11:09:55;37.97;;;15.10;;
18647;SDS011;9453;50.294;18.644;2023-12-04T11:12:25;36.43;;;14.50;;
18647;SDS011;9453;50.294;18.644;2023-12-04T11:14:56;34.47;;;13.83;;
18647;SDS011;9453;50.294;18.644;2023-12-04T11:17:25;38.73;;;14.57;;
18647;SDS011;9453;50.294;18.644;2023-12-04T11:19:59;30.07;;;12.67;;
18647;SDS011;9453;50.294;18.644;2023-12-04T11:22:34;34.40;;;14.07;;
18647;SDS011;9453;50.294;18.644;2023-12-04T11:25:04;35.37;;;14.00;;
18647;SDS011;9453;50.294;18.644;2023-12-04T11:27:33;40.93;;;16.07;;
18647;SDS011;9453;50.294;18.644;2023-12-04T11:30:02;33.40;;;14.50;;
18647;SDS011;9453;50.294;18.644;2023-12-04T11:32:31;36.43;;;14.37;;
18647;SDS011;9453;50.294;18.644;2023-12-04T11:34:58;34.60;;;14.30;;
18647;SDS011;9453;50.294;18.644;2023-12-04T11:37:27;38.23;;;12.83;;
18647;SDS011;9453;50.294;18.644;2023-12-04T11:39:54;32.80;;;13.17;;
18647;SDS011;9453;50.294;18.644;2023-12-04T11:42:23;34.53;;;11.40;;
18647;SDS011;9453;50.294;18.644;2023-12-04T11:44:55;32.47;;;13.23;;
18647;SDS011;9453;50.294;18.644;2023-12-04T11:47:24;31.60;;;11.60;;
18647;SDS011;9453;50.294;18.644;2023-12-04T11:49:54;32.23;;;12.50;;
18647;SDS011;9453;50.294;18.644;2023-12-04T11:52:31;33.90;;;13.20;;
18647;SDS011;9453;50.294;18.644;2023-12-04T11:55:00;23.00;;;10.30;;
18647;SDS011;9453;50.294;18.644;2023-12-04T11:57:32;30.80;;;11.27;;
18647;SDS011;9453;50.294;18.644;2023-12-04T12:00:13;25.17;;;10.30;;
18647;SDS011;9453;50.294;18.644;2023-12-04T12:03:02;24.80;;;9.93;;
18647;SDS011;9453;50.294;18.644;2023-12-04T12:05:31;34.03;;;13.37;;
18647;SDS011;9453;50.294;18.644;2023-12-04T12:08:00;30.23;;;11.63;;
18647;SDS011;9453;50.294;18.644;2023-12-04T12:10:29;29.00;;;10.67;;
18647;SDS011;9453;50.294;18.644;2023-12-04T12:12:56;29.40;;;12.90;;
18647;SDS011;9453;50.294;18.644;2023-12-04T12:15:23;30.17;;;13.20;;
18647;SDS011;9453;50.294;18.644;2023-12-04T12:17:51;31.33;;;11.73;;
18647;SDS011;9453;50.294;18.644;2023-12-04T12:20:20;30.47;;;13.03;;
18647;SDS011;9453;50.294;18.644;2023-12-04T12:22:48;36.40;;;13.27;;
18647;SDS011;9453;50.294;18.644;2023-12-04T12:25:15;26.93;;;10.10;;
18647;SDS011;9453;50.294;18.644;2023-12-04T12:27:43;26.87;;;10.83;;
18647;SDS011;9453;50.294;18.644;2023-12-04T12:30:11;27.00;;;12.17;;
18647;SDS011;9453;50.294;18.644;2023-12-04T12:32:38;24.90;;;10.67;;
18647;SDS011;9453;50.294;18.644;2023-12-04T12:35:05;34.30;;;13.17;;
18647;SDS011;9453;50.294;18.644;2023-12-04T12:37:35;31.67;;;12.20;;
18647;SDS011;9453;50.294;18.644;2023-12-04T12:40:03;31.30;;;13.40;;
18647;SDS011;9453;50.294;18.644;2023-12-04T12:42:34;24.83;;;11.53;;
18647;SDS011;9453;50.294;18.644;2023-12-04T12:45:02;27.80;;;12.13;;
18647;SDS011;9453;50.294;18.644;2023-12-04T12:47:30;30.17;;;13.07;;
18647;SDS011;9453;50.294;18.644;2023-12-04T12:49:57;28.40;;;12.93;;
18647;SDS011;9453;50.294;18.644;2023-12-04T12:52:24;29.57;;;11.90;;
18647;SDS011;9453;50.294;18.644;2023-12-04T12:54:54;34.30;;;13.73;;
18647;SDS011;9453;50.294;18.644;2023-12-04T12:57:21;37.37;;;15.17;;
18647;SDS011;9453;50.294;18.644;2023-12-04T12:59:48;27.23;;;13.10;;
18647;SDS011;9453;50.294;18.644;2023-12-04T13:02:16;32.80;;;14.27;;
18647;SDS011;9453;50.294;18.644;2023-12-04T13:04:43;53.03;;;18.60;;
18647;SDS011;9453;50.294;18.644;2023-12-04T13:07:10;39.53;;;15.63;;
18647;SDS011;9453;50.294;18.644;2023-12-04T13:09:37;41.20;;;16.00;;
18647;SDS011;9453;50.294;18.644;2023-12-04T13:12:06;42.13;;;17.77;;
18647;SDS011;9453;50.294;18.644;2023-12-04T13:14:35;36.60;;;15.13;;
18647;SDS011;9453;50.294;18.644;2023-12-04T13:17:03;34.53;;;14.30;;
18647;SDS011;9453;50.294;18.644;2023-12-04T13:19:31;38.70;;;15.10;;
18647;SDS011;9453;50.294;18.644;2023-12-04T13:21:59;44.90;;;18.00;;
18647;SDS011;9453;50.294;18.644;2023-12-04T13:24:26;43.13;;;16.83;;
18647;SDS011;9453;50.294;18.644;2023-12-04T13:26:54;47.20;;;18.80;;
18647;SDS011;9453;50.294;18.644;2023-12-04T13:29:23;52.13;;;19.33;;
18647;SDS011;9453;50.294;18.644;2023-12-04T13:31:52;48.03;;;17.90;;
18647;SDS011;9453;50.294;18.644;2023-12-04T13:34:24;44.93;;;17.73;;
18647;SDS011;9453;50.294;18.644;2023-12-04T13:36:53;27.67;;;14.00;;
18647;SDS011;9453;50.294;18.644;2023-12-04T13:39:21;26.70;;;12.00;;
18647;SDS011;9453;50.294;18.644;2023-12-04T13:41:53;37.90;;;14.90;;
18647;SDS011;9453;50.294;18.644;2023-12-04T13:44:39;37.27;;;14.13;;
18647;SDS011;9453;50.294;18.644;2023-12-04T13:47:07;31.17;;;13.43;;
18647;SDS011;9453;50.294;18.644;2023-12-04T13:49:37;28.13;;;12.13;;
18647;SDS011;9453;50.294;18.644;2023-12-04T13:52:04;31.43;;;12.77;;
18647;SDS011;9453;50.294;18.644;2023-12-04T13:54:33;29.20;;;12.13;;
18647;SDS011;9453;50.294;18.644;2023-12-04T14:10:47;42.30;;;16.17;;
18647;SDS011;9453;50.294;18.644;2023-12-04T14:20:02;30.97;;;12.60;;
18647;SDS011;9453;50.294;18.644;2023-12-04T14:25:43;39.60;;;16.03;;
18647;SDS011;9453;50.294;18.644;2023-12-04T14:28:11;43.37;;;17.43;;
18647;SDS011;9453;50.294;18.644;2023-12-04T14:30:38;42.57;;;17.10;;
18647;SDS011;9453;50.294;18.644;2023-12-04T14:33:05;41.93;;;16.40;;
18647;SDS011;9453;50.294;18.644;2023-12-04T14:35:34;48.63;;;18.30;;
18647;SDS011;9453;50.294;18.644;2023-12-04T14:38:02;47.17;;;18.27;;
18647;SDS011;9453;50.294;18.644;2023-12-04T14:40:29;50.73;;;19.80;;
18647;SDS011;9453;50.294;18.644;2023-12-04T14:42:56;53.80;;;24.13;;
18647;SDS011;9453;50.294;18.644;2023-12-04T14:45:25;46.77;;;21.33;;
18647;SDS011;9453;50.294;18.644;2023-12-04T14:47:52;44.20;;;17.13;;
18647;SDS011;9453;50.294;18.644;2023-12-04T14:50:22;37.33;;;16.60;;
18647;SDS011;9453;50.294;18.644;2023-12-04T14:52:49;39.87;;;16.27;;
18647;SDS011;9453;50.294;18.644;2023-12-04T14:55:18;43.80;;;17.27;;
18647;SDS011;9453;50.294;18.644;2023-12-04T14:58:21;37.47;;;15.00;;
18647;SDS011;9453;50.294;18.644;2023-12-04T15:01:21;64.23;;;23.13;;
18647;SDS011;9453;50.294;18.644;2023-12-04T15:04:20;142.43;;;45.53;;
18647;SDS011;9453;50.294;18.644;2023-12-04T15:07:04;169.53;;;52.53;;
18647;SDS011;9453;50.294;18.644;2023-12-04T15:10:02;103.60;;;33.47;;
18647;SDS011;9453;50.294;18.644;2023-12-04T15:12:46;88.07;;;26.90;;
18647;SDS011;9453;50.294;18.644;2023-12-04T15:15:37;80.23;;;23.70;;
18647;SDS011;9453;50.294;18.644;2023-12-04T15:18:25;62.47;;;23.20;;
18647;SDS011;9453;50.294;18.644;2023-12-04T15:20:59;65.10;;;23.10;;
18647;SDS011;9453;50.294;18.644;2023-12-04T15:23:25;69.87;;;24.17;;
18647;SDS011;9453;50.294;18.644;2023-12-04T15:25:53;68.17;;;23.80;;
18647;SDS011;9453;50.294;18.644;2023-12-04T15:28:19;56.93;;;20.43;;
18647;SDS011;9453;50.294;18.644;2023-12-04T15:30:47;74.03;;;25.63;;
18647;SDS011;9453;50.294;18.644;2023-12-04T15:33:13;76.50;;;25.77;;
18647;SDS011;9453;50.294;18.644;2023-12-04T15:35:40;52.70;;;22.70;;
18647;SDS011;9453;50.294;18.644;2023-12-04T15:38:07;67.67;;;23.80;;
18647;SDS011;9453;50.294;18.644;2023-12-04T15:40:34;62.57;;;23.57;;
18647;SDS011;9453;50.294;18.644;2023-12-04T15:43:02;53.80;;;21.03;;
18647;SDS011;9453;50.294;18.644;2023-12-04T15:45:28;55.90;;;20.90;;
18647;SDS011;9453;50.294;18.644;2023-12-04T15:47:55;52.10;;;19.70;;
18647;SDS011;9453;50.294;18.644;2023-12-04T15:50:22;49.93;;;18.23;;
18647;SDS011;9453;50.294;18.644;2023-12-04T15:52:50;47.63;;;19.20;;
18647;SDS011;9453;50.294;18.644;2023-12-04T15:55:17;46.93;;;17.83;;
18647;SDS011;9453;50.294;18.644;2023-12-04T15:57:42;50.87;;;20.00;;
18647;SDS011;9453;50.294;18.644;2023-12-04T16:00:12;40.70;;;16.87;;
18647;SDS011;9453;50.294;18.644;2023-12-04T16:02:39;36.73;;;15.30;;
18647;SDS011;9453;50.294;18.644;2023-12-04T16:05:06;44.80;;;16.20;;
18647;SDS011;9453;50.294;18.644;2023-12-04T16:07:35;40.93;;;17.73;;
18647;SDS011;9453;50.294;18.644;2023-12-04T16:10:02;37.53;;;17.10;;
18647;SDS011;9453;50.294;18.644;2023-12-04T16:12:31;29.80;;;13.67;;
18647;SDS011;9453;50.294;18.644;2023-12-04T16:14:58;36.60;;;15.70;;
18647;SDS011;9453;50.294;18.644;2023-12-04T16:17:26;34.50;;;15.60;;
18647;SDS011;9453;50.294;18.644;2023-12-04T16:19:53;40.73;;;16.43;;
18647;SDS011;9453;50.294;18.644;2023-12-04T16:22:22;29.63;;;13.50;;
18647;SDS011;9453;50.294;18.644;2023-12-04T16:24:49;31.57;;;14.17;;
18647;SDS011;9453;50.294;18.644;2023-12-04T16:27:16;42.70;;;16.97;;
18647;SDS011;9453;50.294;18.644;2023-12-04T16:29:43;34.43;;;14.80;;
18647;SDS011;9453;50.294;18.644;2023-12-04T16:32:10;39.77;;;14.07;;
18647;SDS011;9453;50.294;18.644;2023-12-04T16:34:38;28.50;;;12.90;;
18647;SDS011;9453;50.294;18.644;2023-12-04T16:37:05;34.77;;;15.90;;
18647;SDS011;9453;50.294;18.644;2023-12-04T16:39:32;41.80;;;16.93;;
18647;SDS011;9453;50.294;18.644;2023-12-04T16:41:59;39.17;;;17.17;;
18647;SDS011;9453;50.294;18.644;2023-12-04T16:44:27;32.27;;;13.87;;
18647;SDS011;9453;50.294;18.644;2023-12-04T16:46:54;32.00;;;13.33;;
18647;SDS011;9453;50.294;18.644;2023-12-04T16:49:21;32.30;;;14.47;;
18647;SDS011;9453;50.294;18.644;2023-12-04T16:51:50;30.83;;;14.50;;
18647;SDS011;9453;50.294;18.644;2023-12-04T16:54:18;34.30;;;15.23;;
18647;SDS011;9453;50.294;18.644;2023-12-04T16:56:47;34.97;;;13.67;;
18647;SDS011;9453;50.294;18.644;2023-12-04T16:59:14;30.53;;;13.90;;
18647;SDS011;9453;50.294;18.644;2023-12-04T17:01:42;29.70;;;13.00;;
18647;SDS011;9453;50.294;18.644;2023-12-04T17:04:09;34.93;;;13.40;;
18647;SDS011;9453;50.294;18.644;2023-12-04T17:06:38;32.50;;;15.23;;
18647;SDS011;9453;50.294;18.644;2023-12-04T17:09:06;37.70;;;16.43;;
18647;SDS011;9453;50.294;18.644;2023-12-04T17:11:32;36.40;;;15.20;;
18647;SDS011;9453;50.294;18.644;2023-12-04T17:14:00;36.37;;;15.93;;
18647;SDS011;9453;50.294;18.644;2023-12-04T17:16:28;40.73;;;17.20;;
18647;SDS011;9453;50.294;18.644;2023-12-04T17:18:55;41.20;;;17.53;;
18647;SDS011;9453;50.294;18.644;2023-12-04T17:21:22;31.67;;;14.17;;
18647;SDS011;9453;50.294;18.644;2023-12-04T17:23:49;39.00;;;16.10;;
18647;SDS011;9453;50.294;18.644;2023-12-04T17:26:18;39.20;;;15.57;;
18647;SDS011;9453;50.294;18.644;2023-12-04T17:28:45;41.13;;;15.43;;
18647;SDS011;9453;50.294;18.644;2023-12-04T17:31:12;44.17;;;16.77;;
18647;SDS011;9453;50.294;18.644;2023-12-04T17:33:42;33.97;;;15.43;;
18647;SDS011;9453;50.294;18.644;2023-12-04T17:36:09;31.53;;;13.33;;
18647;SDS011;9453;50.294;18.644;2023-12-04T17:38:36;33.93;;;15.23;;
18647;SDS011;9453;50.294;18.644;2023-12-04T17:41:06;39.07;;;16.33;;
18647;SDS011;9453;50.294;18.644;2023-12-04T17:43:34;43.60;;;16.83;;
18647;SDS011;9453;50.294;18.644;2023-12-04T17:46:01;34.80;;;14.03;;
18647;SDS011;9453;50.294;18.644;2023-12-04T17:48:28;33.80;;;14.07;;
18647;SDS011;9453;50.294;18.644;2023-12-04T17:50:56;49.47;;;17.70;;
18647;SDS011;9453;50.294;18.644;2023-12-04T17:53:22;37.27;;;15.67;;
18647;SDS011;9453;50.294;18.644;2023-12-04T17:55:49;35.87;;;14.90;;
18647;SDS011;9453;50.294;18.644;2023-12-04T17:58:16;34.33;;;14.03;;
18647;SDS011;9453;50.294;18.644;2023-12-04T18:00:45;39.13;;;16.37;;
18647;SDS011;9453;50.294;18.644;2023-12-04T18:03:12;31.17;;;13.60;;
18647;SDS011;9453;50.294;18.644;2023-12-04T18:05:39;40.23;;;17.10;;
18647;SDS011;9453;50.294;18.644;2023-12-04T18:08:06;34.90;;;15.30;;
18647;SDS011;9453;50.294;18.644;2023-12-04T18:10:37;28.87;;;13.27;;
18647;SDS011;9453;50.294;18.644;2023-12-04T18:13:04;31.83;;;14.20;;
18647;SDS011;9453;50.294;18.644;2023-12-04T18:15:31;36.70;;;15.70;;
18647;SDS011;9453;50.294;18.644;2023-12-04T18:18:00;42.27;;;15.20;;
18647;SDS011;9453;50.294;18.644;2023-12-04T18:20:27;26.27;;;12.07;;
18647;SDS011;9453;50.294;18.644;2023-12-04T18:22:54;32.67;;;13.30;;
18647;SDS011;9453;50.294;18.644;2023-12-04T18:25:22;26.30;;;12.73;;
18647;SDS011;9453;50.294;18.644;2023-12-04T18:27:49;31.77;;;13.93;;
18647;SDS011;9453;50.294;18.644;2023-12-04T18:30:17;32.17;;;13.23;;
18647;SDS011;9453;50.294;18.644;2023-12-04T18:32:45;33.23;;;13.93;;
18647;SDS011;9453;50.294;18.644;2023-12-04T18:35:16;32.40;;;13.03;;
18647;SDS011;9453;50.294;18.644;2023-12-04T18:37:49;32.77;;;13.73;;
18647;SDS011;9453;50.294;18.644;2023-12-04T18:40:22;32.80;;;13.83;;
18647;SDS011;9453;50.294;18.644;2023-12-04T18:42:50;36.63;;;15.03;;
18647;SDS011;9453;50.294;18.644;2023-12-04T18:45:18;36.90;;;14.47;;
18647;SDS011;9453;50.294;18.644;2023-12-04T18:47:48;34.90;;;14.10;;
18647;SDS011;9453;50.294;18.644;2023-12-04T18:50:23;31.60;;;13.47;;
18647;SDS011;9453;50.294;18.644;2023-12-04T18:52:52;35.70;;;14.90;;
18647;SDS011;9453;50.294;18.644;2023-12-04T18:55:19;33.87;;;14.53;;
18647;SDS011;9453;50.294;18.644;2023-12-04T18:57:46;38.07;;;15.70;;
18647;SDS011;9453;50.294;18.644;2023-12-04T19:00:14;34.13;;;14.50;;
18647;SDS011;9453;50.294;18.644;2023-12-04T19:02:41;34.23;;;14.93;;
18647;SDS011;9453;50.294;18.644;2023-12-04T19:05:08;37.40;;;15.87;;
18647;SDS011;9453;50.294;18.644;2023-12-04T19:07:36;33.30;;;13.53;;
18647;SDS011;9453;50.294;18.644;2023-12-04T19:10:04;38.90;;;14.23;;
18647;SDS011;9453;50.294;18.644;2023-12-04T19:12:31;35.03;;;15.53;;
18647;SDS011;9453;50.294;18.644;2023-12-04T19:14:58;35.43;;;14.07;;
18647;SDS011;9453;50.294;18.644;2023-12-04T19:17:25;34.43;;;12.73;;
18647;SDS011;9453;50.294;18.644;2023-12-04T19:19:53;40.47;;;15.63;;
18647;SDS011;9453;50.294;18.644;2023-12-04T19:22:20;31.37;;;13.87;;
18647;SDS011;9453;50.294;18.644;2023-12-04T19:24:49;36.00;;;16.03;;
18647;SDS011;9453;50.294;18.644;2023-12-04T19:27:16;38.27;;;14.83;;
18647;SDS011;9453;50.294;18.644;2023-12-04T19:29:42;33.43;;;14.73;;
18647;SDS011;9453;50.294;18.644;2023-12-04T19:32:10;35.80;;;15.57;;
18647;SDS011;9453;50.294;18.644;2023-12-04T19:34:36;45.10;;;16.07;;
18647;SDS011;9453;50.294;18.644;2023-12-04T19:37:03;39.23;;;14.00;;
18647;SDS011;9453;50.294;18.644;2023-12-04T19:39:30;39.03;;;14.20;;
18647;SDS011;9453;50.294;18.644;2023-12-04T19:41:59;36.67;;;15.33;;
18647;SDS011;9453;50.294;18.644;2023-12-04T19:44:26;38.43;;;14.93;;
18647;SDS011;9453;50.294;18.644;2023-12-04T19:46:52;41.93;;;16.47;;
18647;SDS011;9453;50.294;18.644;2023-12-04T19:49:20;30.60;;;13.90;;
18647;SDS011;9453;50.294;18.644;2023-12-04T19:51:47;34.37;;;13.40;;
18647;SDS011;9453;50.294;18.644;2023-12-04T19:54:14;40.87;;;15.57;;